sensor_id;sensor_type;location;lat;lon;timestamp;P1;durP1;ratioP1;P2;durP2;ratioP2
19812;SDS011;10066;48.108;11.448;2022-10-19T00:01:11;7.80;;;5.43;;
19812;SDS011;10066;48.108;11.448;2022-10-19T00:03:39;12.80;;;6.23;;
19812;SDS011;10066;48.108;11.448;2022-10-19T00:06:10;8.33;;;6.13;;
19812;SDS011;10066;48.108;11.448;2022-10-19T00:08:40;10.73;;;6.03;;
19812;SDS011;10066;48.108;11.448;2022-10-19T00:11:07;6.67;;;5.63;;
19812;SDS011;10066;48.108;11.448;2022-10-19T00:13:36;9.40;;;5.90;;
19812;SDS011;10066;48.108;11.448;2022-10-19T00:16:06;9.10;;;5.80;;
19812;SDS011;10066;48.108;11.448;2022-10-19T00:18:35;8.67;;;6.33;;
19812;SDS011;10066;48.108;11.448;2022-10-19T00:21:02;7.00;;;5.90;;
19812;SDS011;10066;48.108;11.448;2022-10-19T00:23:30;9.00;;;6.13;;
19812;SDS011;10066;48.108;11.448;2022-10-19T00:25:59;5.87;;;5.27;;
19812;SDS011;10066;48.108;11.448;2022-10-19T00:28:26;7.07;;;5.00;;
19812;SDS011;10066;48.108;11.448;2022-10-19T00:30:53;6.97;;;5.30;;
19812;SDS011;10066;48.108;11.448;2022-10-19T00:33:21;6.87;;;5.03;;
19812;SDS011;10066;48.108;11.448;2022-10-19T00:35:48;8.03;;;5.33;;
19812;SDS011;10066;48.108;11.448;2022-10-19T00:38:16;6.97;;;5.80;;
19812;SDS011;10066;48.108;11.448;2022-10-19T00:40:43;7.40;;;6.03;;
19812;SDS011;10066;48.108;11.448;2022-10-19T00:43:14;10.40;;;6.17;;
19812;SDS011;10066;48.108;11.448;2022-10-19T00:45:43;6.73;;;5.80;;
19812;SDS011;10066;48.108;11.448;2022-10-19T00:48:10;9.13;;;6.43;;
19812;SDS011;10066;48.108;11.448;2022-10-19T00:50:40;9.73;;;5.80;;
19812;SDS011;10066;48.108;11.448;2022-10-19T00:53:09;10.03;;;5.60;;
19812;SDS011;10066;48.108;11.448;2022-10-19T00:55:36;7.43;;;5.83;;
19812;SDS011;10066;48.108;11.448;2022-10-19T00:58:04;7.37;;;5.83;;
19812;SDS011;10066;48.108;11.448;2022-10-19T01:00:33;7.80;;;5.83;;
19812;SDS011;10066;48.108;11.448;2022-10-19T01:03:00;6.47;;;5.50;;
19812;SDS011;10066;48.108;11.448;2022-10-19T01:05:29;8.03;;;6.07;;
19812;SDS011;10066;48.108;11.448;2022-10-19T01:07:57;7.73;;;5.90;;
19812;SDS011;10066;48.108;11.448;2022-10-19T01:10:26;8.97;;;5.50;;
19812;SDS011;10066;48.108;11.448;2022-10-19T01:13:10;10.50;;;5.60;;
19812;SDS011;10066;48.108;11.448;2022-10-19T01:15:44;9.67;;;6.27;;
19812;SDS011;10066;48.108;11.448;2022-10-19T01:18:18;9.73;;;6.20;;
19812;SDS011;10066;48.108;11.448;2022-10-19T01:20:57;8.00;;;6.33;;
19812;SDS011;10066;48.108;11.448;2022-10-19T01:27:05;9.60;;;6.10;;
19812;SDS011;10066;48.108;11.448;2022-10-19T01:30:00;7.33;;;6.53;;
19812;SDS011;10066;48.108;11.448;2022-10-19T01:32:33;7.83;;;5.80;;
19812;SDS011;10066;48.108;11.448;2022-10-19T01:35:10;9.87;;;6.73;;
19812;SDS011;10066;48.108;11.448;2022-10-19T01:37:47;8.00;;;5.93;;
19812;SDS011;10066;48.108;11.448;2022-10-19T01:40:19;9.80;;;6.27;;
19812;SDS011;10066;48.108;11.448;2022-10-19T01:42:55;7.70;;;6.27;;
19812;SDS011;10066;48.108;11.448;2022-10-19T01:45:29;6.20;;;5.50;;
19812;SDS011;10066;48.108;11.448;2022-10-19T01:48:02;11.83;;;5.97;;
19812;SDS011;10066;48.108;11.448;2022-10-19T01:50:34;7.73;;;5.83;;
19812;SDS011;10066;48.108;11.448;2022-10-19T01:53:04;10.57;;;6.37;;
19812;SDS011;10066;48.108;11.448;2022-10-19T01:55:32;6.73;;;6.03;;
19812;SDS011;10066;48.108;11.448;2022-10-19T01:58:04;10.07;;;8.33;;
19812;SDS011;10066;48.108;11.448;2022-10-19T02:00:36;10.80;;;8.30;;
19812;SDS011;10066;48.108;11.448;2022-10-19T02:03:06;12.03;;;9.37;;
19812;SDS011;10066;48.108;11.448;2022-10-19T02:05:35;11.40;;;9.07;;
19812;SDS011;10066;48.108;11.448;2022-10-19T02:08:05;14.90;;;10.90;;
19812;SDS011;10066;48.108;11.448;2022-10-19T02:10:37;15.40;;;10.60;;
19812;SDS011;10066;48.108;11.448;2022-10-19T02:13:07;13.07;;;11.23;;
19812;SDS011;10066;48.108;11.448;2022-10-19T02:15:38;21.67;;;12.87;;
19812;SDS011;10066;48.108;11.448;2022-10-19T02:18:08;14.77;;;12.00;;
19812;SDS011;10066;48.108;11.448;2022-10-19T02:20:38;14.23;;;12.73;;
19812;SDS011;10066;48.108;11.448;2022-10-19T02:23:05;13.73;;;9.83;;
19812;SDS011;10066;48.108;11.448;2022-10-19T02:25:33;15.60;;;12.20;;
19812;SDS011;10066;48.108;11.448;2022-10-19T02:28:00;16.07;;;12.50;;
19812;SDS011;10066;48.108;11.448;2022-10-19T02:30:29;14.47;;;12.83;;
19812;SDS011;10066;48.108;11.448;2022-10-19T02:32:59;17.13;;;14.53;;
19812;SDS011;10066;48.108;11.448;2022-10-19T02:35:26;16.43;;;13.47;;
19812;SDS011;10066;48.108;11.448;2022-10-19T02:37:53;16.87;;;13.50;;
19812;SDS011;10066;48.108;11.448;2022-10-19T02:40:24;17.90;;;14.50;;
19812;SDS011;10066;48.108;11.448;2022-10-19T02:42:53;15.93;;;13.53;;
19812;SDS011;10066;48.108;11.448;2022-10-19T02:45:26;17.43;;;12.93;;
19812;SDS011;10066;48.108;11.448;2022-10-19T02:47:56;18.50;;;14.03;;
19812;SDS011;10066;48.108;11.448;2022-10-19T02:50:27;18.60;;;14.57;;
19812;SDS011;10066;48.108;11.448;2022-10-19T02:52:56;18.37;;;14.37;;
19812;SDS011;10066;48.108;11.448;2022-10-19T02:55:24;15.27;;;12.33;;
19812;SDS011;10066;48.108;11.448;2022-10-19T02:57:51;19.37;;;13.43;;
19812;SDS011;10066;48.108;11.448;2022-10-19T03:00:18;16.87;;;13.83;;
19812;SDS011;10066;48.108;11.448;2022-10-19T03:02:46;18.77;;;14.37;;
19812;SDS011;10066;48.108;11.448;2022-10-19T03:05:14;16.93;;;13.53;;
19812;SDS011;10066;48.108;11.448;2022-10-19T03:07:41;19.63;;;16.10;;
19812;SDS011;10066;48.108;11.448;2022-10-19T03:10:08;21.03;;;16.20;;
19812;SDS011;10066;48.108;11.448;2022-10-19T03:12:35;21.83;;;15.90;;
19812;SDS011;10066;48.108;11.448;2022-10-19T03:15:05;19.27;;;16.43;;
19812;SDS011;10066;48.108;11.448;2022-10-19T03:17:32;18.83;;;15.67;;
19812;SDS011;10066;48.108;11.448;2022-10-19T03:19:59;17.03;;;12.90;;
19812;SDS011;10066;48.108;11.448;2022-10-19T03:22:28;19.13;;;13.60;;
19812;SDS011;10066;48.108;11.448;2022-10-19T03:24:55;20.57;;;16.87;;
19812;SDS011;10066;48.108;11.448;2022-10-19T03:27:22;22.83;;;17.80;;
19812;SDS011;10066;48.108;11.448;2022-10-19T03:29:49;22.93;;;16.80;;
19812;SDS011;10066;48.108;11.448;2022-10-19T03:32:16;18.90;;;14.87;;
19812;SDS011;10066;48.108;11.448;2022-10-19T03:34:43;20.87;;;17.53;;
19812;SDS011;10066;48.108;11.448;2022-10-19T03:37:10;20.73;;;17.40;;
19812;SDS011;10066;48.108;11.448;2022-10-19T03:39:38;22.20;;;17.90;;
19812;SDS011;10066;48.108;11.448;2022-10-19T03:42:05;21.87;;;17.60;;
19812;SDS011;10066;48.108;11.448;2022-10-19T03:44:32;22.17;;;18.43;;
19812;SDS011;10066;48.108;11.448;2022-10-19T03:46:59;23.40;;;17.67;;
19812;SDS011;10066;48.108;11.448;2022-10-19T03:49:27;20.03;;;16.37;;
19812;SDS011;10066;48.108;11.448;2022-10-19T03:51:54;23.57;;;19.10;;
19812;SDS011;10066;48.108;11.448;2022-10-19T03:54:21;23.07;;;18.83;;
19812;SDS011;10066;48.108;11.448;2022-10-19T03:56:49;27.87;;;18.57;;
19812;SDS011;10066;48.108;11.448;2022-10-19T03:59:16;23.87;;;17.97;;
19812;SDS011;10066;48.108;11.448;2022-10-19T04:01:44;20.50;;;17.23;;
19812;SDS011;10066;48.108;11.448;2022-10-19T04:04:12;25.03;;;18.87;;
19812;SDS011;10066;48.108;11.448;2022-10-19T04:06:41;21.50;;;16.93;;
19812;SDS011;10066;48.108;11.448;2022-10-19T04:09:11;23.40;;;17.47;;
19812;SDS011;10066;48.108;11.448;2022-10-19T04:11:39;22.83;;;18.03;;
19812;SDS011;10066;48.108;11.448;2022-10-19T04:14:09;22.30;;;17.53;;
19812;SDS011;10066;48.108;11.448;2022-10-19T04:16:36;23.50;;;18.13;;
19812;SDS011;10066;48.108;11.448;2022-10-19T04:19:03;20.93;;;16.67;;
19812;SDS011;10066;48.108;11.448;2022-10-19T04:21:31;18.90;;;15.13;;
19812;SDS011;10066;48.108;11.448;2022-10-19T04:24:00;20.40;;;16.03;;
19812;SDS011;10066;48.108;11.448;2022-10-19T04:26:29;22.83;;;19.27;;
19812;SDS011;10066;48.108;11.448;2022-10-19T04:28:56;23.60;;;16.97;;
19812;SDS011;10066;48.108;11.448;2022-10-19T04:31:25;23.53;;;17.50;;
19812;SDS011;10066;48.108;11.448;2022-10-19T04:33:53;25.27;;;19.57;;
19812;SDS011;10066;48.108;11.448;2022-10-19T04:36:20;22.90;;;17.90;;
19812;SDS011;10066;48.108;11.448;2022-10-19T04:38:49;26.87;;;19.80;;
19812;SDS011;10066;48.108;11.448;2022-10-19T04:41:16;22.23;;;18.20;;
19812;SDS011;10066;48.108;11.448;2022-10-19T04:43:46;25.57;;;18.07;;
19812;SDS011;10066;48.108;11.448;2022-10-19T04:46:15;25.57;;;20.07;;
19812;SDS011;10066;48.108;11.448;2022-10-19T04:48:45;24.60;;;18.27;;
19812;SDS011;10066;48.108;11.448;2022-10-19T04:51:13;17.43;;;15.23;;
19812;SDS011;10066;48.108;11.448;2022-10-19T04:53:41;20.90;;;14.47;;
19812;SDS011;10066;48.108;11.448;2022-10-19T04:56:12;19.23;;;14.10;;
19812;SDS011;10066;48.108;11.448;2022-10-19T04:58:40;17.47;;;14.13;;
19812;SDS011;10066;48.108;11.448;2022-10-19T05:01:08;20.77;;;16.40;;
19812;SDS011;10066;48.108;11.448;2022-10-19T05:03:36;18.47;;;15.43;;
19812;SDS011;10066;48.108;11.448;2022-10-19T05:06:05;17.70;;;15.60;;
19812;SDS011;10066;48.108;11.448;2022-10-19T05:08:32;20.03;;;15.00;;
19812;SDS011;10066;48.108;11.448;2022-10-19T05:11:00;15.63;;;13.53;;
19812;SDS011;10066;48.108;11.448;2022-10-19T05:13:28;17.80;;;15.47;;
19812;SDS011;10066;48.108;11.448;2022-10-19T05:15:56;27.77;;;17.80;;
19812;SDS011;10066;48.108;11.448;2022-10-19T05:18:24;22.50;;;18.60;;
19812;SDS011;10066;48.108;11.448;2022-10-19T05:20:54;18.50;;;15.40;;
19812;SDS011;10066;48.108;11.448;2022-10-19T05:23:28;26.70;;;17.63;;
19812;SDS011;10066;48.108;11.448;2022-10-19T05:25:59;23.37;;;17.53;;
19812;SDS011;10066;48.108;11.448;2022-10-19T05:28:27;23.70;;;16.93;;
19812;SDS011;10066;48.108;11.448;2022-10-19T05:30:54;19.27;;;16.00;;
19812;SDS011;10066;48.108;11.448;2022-10-19T05:33:21;21.43;;;14.83;;
19812;SDS011;10066;48.108;11.448;2022-10-19T05:35:48;18.97;;;15.80;;
19812;SDS011;10066;48.108;11.448;2022-10-19T05:38:15;23.27;;;18.40;;
19812;SDS011;10066;48.108;11.448;2022-10-19T05:40:47;24.97;;;18.53;;
19812;SDS011;10066;48.108;11.448;2022-10-19T05:43:14;21.90;;;17.00;;
19812;SDS011;10066;48.108;11.448;2022-10-19T05:45:41;20.70;;;17.83;;
19812;SDS011;10066;48.108;11.448;2022-10-19T05:48:08;28.13;;;17.33;;
19812;SDS011;10066;48.108;11.448;2022-10-19T05:50:35;23.23;;;16.97;;
19812;SDS011;10066;48.108;11.448;2022-10-19T05:53:02;22.80;;;17.70;;
19812;SDS011;10066;48.108;11.448;2022-10-19T05:55:32;27.67;;;16.00;;
19812;SDS011;10066;48.108;11.448;2022-10-19T05:58:02;18.53;;;15.43;;
19812;SDS011;10066;48.108;11.448;2022-10-19T06:00:29;23.20;;;16.07;;
19812;SDS011;10066;48.108;11.448;2022-10-19T06:02:57;24.47;;;15.90;;
19812;SDS011;10066;48.108;11.448;2022-10-19T06:05:24;22.47;;;15.77;;
19812;SDS011;10066;48.108;11.448;2022-10-19T06:07:51;23.33;;;15.57;;
19812;SDS011;10066;48.108;11.448;2022-10-19T06:10:18;24.73;;;15.80;;
19812;SDS011;10066;48.108;11.448;2022-10-19T06:12:46;23.10;;;15.77;;
19812;SDS011;10066;48.108;11.448;2022-10-19T06:15:14;23.23;;;15.23;;
19812;SDS011;10066;48.108;11.448;2022-10-19T06:17:41;28.67;;;15.30;;
19812;SDS011;10066;48.108;11.448;2022-10-19T06:20:08;21.57;;;15.23;;
19812;SDS011;10066;48.108;11.448;2022-10-19T06:22:36;23.80;;;15.83;;
19812;SDS011;10066;48.108;11.448;2022-10-19T06:25:03;22.17;;;15.57;;
19812;SDS011;10066;48.108;11.448;2022-10-19T06:27:31;24.50;;;15.67;;
19812;SDS011;10066;48.108;11.448;2022-10-19T06:29:57;23.27;;;16.47;;
19812;SDS011;10066;48.108;11.448;2022-10-19T06:32:26;24.80;;;16.03;;
19812;SDS011;10066;48.108;11.448;2022-10-19T06:34:53;24.23;;;16.00;;
19812;SDS011;10066;48.108;11.448;2022-10-19T06:37:20;28.10;;;16.30;;
19812;SDS011;10066;48.108;11.448;2022-10-19T06:39:47;27.80;;;15.83;;
19812;SDS011;10066;48.108;11.448;2022-10-19T06:42:14;26.63;;;16.03;;
19812;SDS011;10066;48.108;11.448;2022-10-19T06:44:41;25.80;;;17.27;;
19812;SDS011;10066;48.108;11.448;2022-10-19T06:47:08;29.13;;;16.97;;
19812;SDS011;10066;48.108;11.448;2022-10-19T06:49:36;25.37;;;16.30;;
19812;SDS011;10066;48.108;11.448;2022-10-19T06:52:03;28.60;;;17.27;;
19812;SDS011;10066;48.108;11.448;2022-10-19T06:54:31;26.40;;;17.27;;
19812;SDS011;10066;48.108;11.448;2022-10-19T06:56:58;28.27;;;19.53;;
19812;SDS011;10066;48.108;11.448;2022-10-19T06:59:25;26.83;;;19.27;;
19812;SDS011;10066;48.108;11.448;2022-10-19T07:01:52;27.93;;;20.47;;
19812;SDS011;10066;48.108;11.448;2022-10-19T07:04:19;27.23;;;19.80;;
19812;SDS011;10066;48.108;11.448;2022-10-19T07:06:48;30.20;;;20.77;;
19812;SDS011;10066;48.108;11.448;2022-10-19T07:09:15;26.03;;;20.23;;
19812;SDS011;10066;48.108;11.448;2022-10-19T07:11:43;32.23;;;21.00;;
19812;SDS011;10066;48.108;11.448;2022-10-19T07:14:12;24.87;;;19.83;;
19812;SDS011;10066;48.108;11.448;2022-10-19T07:16:39;27.73;;;20.67;;
19812;SDS011;10066;48.108;11.448;2022-10-19T07:19:06;27.47;;;20.43;;
19812;SDS011;10066;48.108;11.448;2022-10-19T07:21:32;26.87;;;21.30;;
19812;SDS011;10066;48.108;11.448;2022-10-19T07:24:07;29.33;;;21.53;;
19812;SDS011;10066;48.108;11.448;2022-10-19T07:26:34;32.57;;;22.13;;
19812;SDS011;10066;48.108;11.448;2022-10-19T07:29:02;36.10;;;23.03;;
19812;SDS011;10066;48.108;11.448;2022-10-19T07:31:29;34.50;;;21.77;;
19812;SDS011;10066;48.108;11.448;2022-10-19T07:33:58;30.67;;;22.60;;
19812;SDS011;10066;48.108;11.448;2022-10-19T07:36:26;30.57;;;21.70;;
19812;SDS011;10066;48.108;11.448;2022-10-19T07:38:54;30.63;;;23.97;;
19812;SDS011;10066;48.108;11.448;2022-10-19T07:41:24;29.97;;;24.43;;
19812;SDS011;10066;48.108;11.448;2022-10-19T07:43:52;29.80;;;22.37;;
19812;SDS011;10066;48.108;11.448;2022-10-19T07:46:22;33.00;;;24.00;;
19812;SDS011;10066;48.108;11.448;2022-10-19T07:48:53;40.33;;;27.17;;
19812;SDS011;10066;48.108;11.448;2022-10-19T07:51:21;38.23;;;25.33;;
19812;SDS011;10066;48.108;11.448;2022-10-19T07:53:48;39.93;;;27.83;;
19812;SDS011;10066;48.108;11.448;2022-10-19T07:56:16;43.43;;;28.70;;
19812;SDS011;10066;48.108;11.448;2022-10-19T07:58:46;43.93;;;27.67;;
19812;SDS011;10066;48.108;11.448;2022-10-19T08:01:16;42.20;;;27.73;;
19812;SDS011;10066;48.108;11.448;2022-10-19T08:03:44;37.93;;;24.90;;
19812;SDS011;10066;48.108;11.448;2022-10-19T08:06:13;46.73;;;27.30;;
19812;SDS011;10066;48.108;11.448;2022-10-19T08:08:41;42.77;;;28.63;;
19812;SDS011;10066;48.108;11.448;2022-10-19T08:11:10;42.27;;;27.93;;
19812;SDS011;10066;48.108;11.448;2022-10-19T08:13:39;44.50;;;29.47;;
19812;SDS011;10066;48.108;11.448;2022-10-19T08:16:18;41.23;;;29.83;;
19812;SDS011;10066;48.108;11.448;2022-10-19T08:18:46;43.83;;;28.50;;
19812;SDS011;10066;48.108;11.448;2022-10-19T08:21:14;47.83;;;29.47;;
19812;SDS011;10066;48.108;11.448;2022-10-19T08:23:41;44.53;;;27.30;;
19812;SDS011;10066;48.108;11.448;2022-10-19T08:26:08;45.20;;;29.30;;
19812;SDS011;10066;48.108;11.448;2022-10-19T08:28:35;45.27;;;29.00;;
19812;SDS011;10066;48.108;11.448;2022-10-19T08:31:09;39.27;;;27.80;;
19812;SDS011;10066;48.108;11.448;2022-10-19T08:33:37;46.47;;;25.87;;
19812;SDS011;10066;48.108;11.448;2022-10-19T08:36:05;44.00;;;26.33;;
19812;SDS011;10066;48.108;11.448;2022-10-19T08:38:33;42.70;;;25.60;;
19812;SDS011;10066;48.108;11.448;2022-10-19T08:41:05;39.37;;;25.00;;
19812;SDS011;10066;48.108;11.448;2022-10-19T08:43:41;38.03;;;26.03;;
19812;SDS011;10066;48.108;11.448;2022-10-19T08:46:19;40.53;;;26.13;;
19812;SDS011;10066;48.108;11.448;2022-10-19T08:48:50;35.87;;;23.90;;
19812;SDS011;10066;48.108;11.448;2022-10-19T08:51:17;39.97;;;25.23;;
19812;SDS011;10066;48.108;11.448;2022-10-19T08:53:47;36.03;;;24.60;;
19812;SDS011;10066;48.108;11.448;2022-10-19T08:56:20;36.87;;;25.60;;
19812;SDS011;10066;48.108;11.448;2022-10-19T08:59:05;37.27;;;25.13;;
19812;SDS011;10066;48.108;11.448;2022-10-19T09:01:41;36.50;;;23.80;;
19812;SDS011;10066;48.108;11.448;2022-10-19T09:04:14;33.57;;;23.70;;
19812;SDS011;10066;48.108;11.448;2022-10-19T09:06:48;31.77;;;22.60;;
19812;SDS011;10066;48.108;11.448;2022-10-19T09:09:24;28.53;;;20.67;;
19812;SDS011;10066;48.108;11.448;2022-10-19T09:11:54;26.60;;;20.90;;
19812;SDS011;10066;48.108;11.448;2022-10-19T09:14:29;27.77;;;20.00;;
19812;SDS011;10066;48.108;11.448;2022-10-19T09:17:00;30.83;;;20.67;;
19812;SDS011;10066;48.108;11.448;2022-10-19T09:19:31;32.97;;;21.80;;
19812;SDS011;10066;48.108;11.448;2022-10-19T09:21:59;32.00;;;21.37;;
19812;SDS011;10066;48.108;11.448;2022-10-19T09:24:31;26.67;;;20.07;;
19812;SDS011;10066;48.108;11.448;2022-10-19T09:27:04;24.30;;;18.40;;
19812;SDS011;10066;48.108;11.448;2022-10-19T09:29:36;27.03;;;18.20;;
19812;SDS011;10066;48.108;11.448;2022-10-19T09:32:10;22.93;;;17.70;;
19812;SDS011;10066;48.108;11.448;2022-10-19T09:34:41;23.47;;;16.80;;
19812;SDS011;10066;48.108;11.448;2022-10-19T09:37:11;22.97;;;17.03;;
19812;SDS011;10066;48.108;11.448;2022-10-19T09:39:39;22.03;;;16.73;;
19812;SDS011;10066;48.108;11.448;2022-10-19T09:42:07;22.13;;;17.20;;
19812;SDS011;10066;48.108;11.448;2022-10-19T09:44:38;22.70;;;16.87;;
19812;SDS011;10066;48.108;11.448;2022-10-19T09:47:19;20.30;;;15.57;;
19812;SDS011;10066;48.108;11.448;2022-10-19T09:50:05;19.50;;;15.20;;
19812;SDS011;10066;48.108;11.448;2022-10-19T09:52:44;17.03;;;14.37;;
19812;SDS011;10066;48.108;11.448;2022-10-19T09:55:21;16.80;;;14.13;;
19812;SDS011;10066;48.108;11.448;2022-10-19T09:58:00;17.80;;;14.13;;
19812;SDS011;10066;48.108;11.448;2022-10-19T10:00:33;18.63;;;13.43;;
19812;SDS011;10066;48.108;11.448;2022-10-19T10:03:03;17.17;;;14.07;;
19812;SDS011;10066;48.108;11.448;2022-10-19T10:05:32;18.23;;;13.90;;
19812;SDS011;10066;48.108;11.448;2022-10-19T10:08:01;18.03;;;14.63;;
19812;SDS011;10066;48.108;11.448;2022-10-19T10:10:30;17.53;;;14.50;;
19812;SDS011;10066;48.108;11.448;2022-10-19T10:13:03;19.07;;;15.70;;
19812;SDS011;10066;48.108;11.448;2022-10-19T10:15:34;18.23;;;14.43;;
19812;SDS011;10066;48.108;11.448;2022-10-19T10:18:11;21.37;;;16.13;;
19812;SDS011;10066;48.108;11.448;2022-10-19T10:20:54;17.77;;;14.97;;
19812;SDS011;10066;48.108;11.448;2022-10-19T10:23:24;20.23;;;16.03;;
19812;SDS011;10066;48.108;11.448;2022-10-19T10:25:54;25.47;;;16.90;;
19812;SDS011;10066;48.108;11.448;2022-10-19T10:28:22;25.43;;;17.13;;
19812;SDS011;10066;48.108;11.448;2022-10-19T10:30:52;21.07;;;15.90;;
19812;SDS011;10066;48.108;11.448;2022-10-19T10:33:26;21.33;;;16.90;;
19812;SDS011;10066;48.108;11.448;2022-10-19T10:35:55;19.83;;;16.20;;
19812;SDS011;10066;48.108;11.448;2022-10-19T10:38:29;22.50;;;15.90;;
19812;SDS011;10066;48.108;11.448;2022-10-19T10:40:59;26.63;;;17.43;;
19812;SDS011;10066;48.108;11.448;2022-10-19T10:43:32;21.70;;;16.77;;
19812;SDS011;10066;48.108;11.448;2022-10-19T10:46:02;19.17;;;15.97;;
19812;SDS011;10066;48.108;11.448;2022-10-19T10:48:35;21.67;;;17.00;;
19812;SDS011;10066;48.108;11.448;2022-10-19T10:51:06;25.83;;;16.00;;
19812;SDS011;10066;48.108;11.448;2022-10-19T10:53:43;19.60;;;14.57;;
19812;SDS011;10066;48.108;11.448;2022-10-19T10:58:58;19.03;;;14.83;;
19812;SDS011;10066;48.108;11.448;2022-10-19T11:01:31;21.63;;;15.43;;
19812;SDS011;10066;48.108;11.448;2022-10-19T11:04:05;21.17;;;15.43;;
19812;SDS011;10066;48.108;11.448;2022-10-19T11:06:40;21.40;;;15.43;;
19812;SDS011;10066;48.108;11.448;2022-10-19T11:09:12;20.17;;;16.20;;
19812;SDS011;10066;48.108;11.448;2022-10-19T11:11:48;19.90;;;15.13;;
19812;SDS011;10066;48.108;11.448;2022-10-19T11:14:23;19.77;;;15.53;;
19812;SDS011;10066;48.108;11.448;2022-10-19T11:16:56;19.30;;;15.33;;
19812;SDS011;10066;48.108;11.448;2022-10-19T11:19:28;17.63;;;13.67;;
19812;SDS011;10066;48.108;11.448;2022-10-19T11:22:00;17.67;;;12.93;;
19812;SDS011;10066;48.108;11.448;2022-10-19T11:24:38;17.77;;;12.93;;
19812;SDS011;10066;48.108;11.448;2022-10-19T11:27:18;17.47;;;11.67;;
19812;SDS011;10066;48.108;11.448;2022-10-19T11:29:59;12.27;;;9.83;;
19812;SDS011;10066;48.108;11.448;2022-10-19T11:32:34;14.37;;;10.57;;
19812;SDS011;10066;48.108;11.448;2022-10-19T11:35:16;10.93;;;9.73;;
19812;SDS011;10066;48.108;11.448;2022-10-19T11:37:54;10.73;;;9.40;;
19812;SDS011;10066;48.108;11.448;2022-10-19T11:40:32;10.73;;;9.60;;
19812;SDS011;10066;48.108;11.448;2022-10-19T11:43:04;9.63;;;8.40;;
19812;SDS011;10066;48.108;11.448;2022-10-19T11:45:45;9.70;;;8.70;;
19812;SDS011;10066;48.108;11.448;2022-10-19T11:48:32;9.83;;;7.43;;
19812;SDS011;10066;48.108;11.448;2022-10-19T11:51:15;8.77;;;6.70;;
19812;SDS011;10066;48.108;11.448;2022-10-19T11:53:54;8.30;;;5.83;;
19812;SDS011;10066;48.108;11.448;2022-10-19T11:56:31;6.70;;;5.70;;
19812;SDS011;10066;48.108;11.448;2022-10-19T11:59:05;6.07;;;5.33;;
19812;SDS011;10066;48.108;11.448;2022-10-19T12:01:43;6.00;;;5.40;;
19812;SDS011;10066;48.108;11.448;2022-10-19T12:04:26;6.70;;;4.83;;
19812;SDS011;10066;48.108;11.448;2022-10-19T12:07:10;5.23;;;4.60;;
19812;SDS011;10066;48.108;11.448;2022-10-19T12:09:48;5.73;;;4.40;;
19812;SDS011;10066;48.108;11.448;2022-10-19T12:12:25;5.07;;;4.40;;
19812;SDS011;10066;48.108;11.448;2022-10-19T12:15:03;4.50;;;3.97;;
19812;SDS011;10066;48.108;11.448;2022-10-19T12:17:45;4.43;;;4.03;;
19812;SDS011;10066;48.108;11.448;2022-10-19T12:20:17;5.63;;;3.70;;
19812;SDS011;10066;48.108;11.448;2022-10-19T12:22:51;5.23;;;3.77;;
19812;SDS011;10066;48.108;11.448;2022-10-19T12:25:19;5.37;;;4.00;;
19812;SDS011;10066;48.108;11.448;2022-10-19T12:27:47;4.30;;;3.90;;
19812;SDS011;10066;48.108;11.448;2022-10-19T12:30:16;4.27;;;3.60;;
19812;SDS011;10066;48.108;11.448;2022-10-19T12:32:50;3.90;;;3.60;;
19812;SDS011;10066;48.108;11.448;2022-10-19T12:35:31;5.77;;;4.43;;
19812;SDS011;10066;48.108;11.448;2022-10-19T12:38:20;5.27;;;4.17;;
19812;SDS011;10066;48.108;11.448;2022-10-19T12:40:51;4.23;;;3.83;;
19812;SDS011;10066;48.108;11.448;2022-10-19T12:43:25;5.23;;;4.70;;
19812;SDS011;10066;48.108;11.448;2022-10-19T12:45:59;5.30;;;4.80;;
19812;SDS011;10066;48.108;11.448;2022-10-19T12:48:34;5.60;;;5.10;;
19812;SDS011;10066;48.108;11.448;2022-10-19T12:51:07;5.83;;;4.93;;
19812;SDS011;10066;48.108;11.448;2022-10-19T12:53:39;6.10;;;5.50;;
19812;SDS011;10066;48.108;11.448;2022-10-19T12:56:10;7.30;;;5.67;;
19812;SDS011;10066;48.108;11.448;2022-10-19T12:58:44;6.40;;;5.80;;
19812;SDS011;10066;48.108;11.448;2022-10-19T13:01:17;8.97;;;6.90;;
19812;SDS011;10066;48.108;11.448;2022-10-19T13:03:48;8.10;;;6.23;;
19812;SDS011;10066;48.108;11.448;2022-10-19T13:06:28;7.47;;;6.67;;
19812;SDS011;10066;48.108;11.448;2022-10-19T13:08:59;7.90;;;6.47;;
19812;SDS011;10066;48.108;11.448;2022-10-19T13:11:29;8.50;;;7.33;;
19812;SDS011;10066;48.108;11.448;2022-10-19T13:14:00;9.93;;;7.53;;
19812;SDS011;10066;48.108;11.448;2022-10-19T13:19:28;9.03;;;7.90;;
19812;SDS011;10066;48.108;11.448;2022-10-19T13:22:02;9.27;;;7.23;;
19812;SDS011;10066;48.108;11.448;2022-10-19T13:27:53;9.00;;;7.70;;
19812;SDS011;10066;48.108;11.448;2022-10-19T13:36:17;8.93;;;7.23;;
19812;SDS011;10066;48.108;11.448;2022-10-19T13:38:46;6.43;;;5.50;;
19812;SDS011;10066;48.108;11.448;2022-10-19T13:41:44;6.83;;;6.13;;
19812;SDS011;10066;48.108;11.448;2022-10-19T13:44:22;5.83;;;5.23;;
19812;SDS011;10066;48.108;11.448;2022-10-19T13:53:05;4.27;;;3.87;;
19812;SDS011;10066;48.108;11.448;2022-10-19T14:05:22;7.60;;;3.53;;
19812;SDS011;10066;48.108;11.448;2022-10-19T14:07:59;4.13;;;3.30;;
19812;SDS011;10066;48.108;11.448;2022-10-19T14:10:33;3.40;;;3.00;;
19812;SDS011;10066;48.108;11.448;2022-10-19T14:13:01;3.13;;;2.80;;
19812;SDS011;10066;48.108;11.448;2022-10-19T14:15:32;5.23;;;3.13;;
19812;SDS011;10066;48.108;11.448;2022-10-19T14:18:00;4.00;;;3.00;;
19812;SDS011;10066;48.108;11.448;2022-10-19T14:20:28;4.57;;;2.90;;
19812;SDS011;10066;48.108;11.448;2022-10-19T14:22:57;3.87;;;2.90;;
19812;SDS011;10066;48.108;11.448;2022-10-19T14:25:47;6.27;;;3.43;;
19812;SDS011;10066;48.108;11.448;2022-10-19T14:28:15;9.47;;;3.60;;
19812;SDS011;10066;48.108;11.448;2022-10-19T14:30:44;5.83;;;3.10;;
19812;SDS011;10066;48.108;11.448;2022-10-19T14:33:20;4.97;;;3.30;;
19812;SDS011;10066;48.108;11.448;2022-10-19T14:35:49;5.17;;;3.70;;
19812;SDS011;10066;48.108;11.448;2022-10-19T14:38:17;5.27;;;3.70;;
19812;SDS011;10066;48.108;11.448;2022-10-19T14:40:47;4.37;;;3.60;;
19812;SDS011;10066;48.108;11.448;2022-10-19T14:43:17;5.40;;;3.67;;
19812;SDS011;10066;48.108;11.448;2022-10-19T14:46:07;4.47;;;3.53;;
19812;SDS011;10066;48.108;11.448;2022-10-19T14:48:37;6.80;;;3.80;;
19812;SDS011;10066;48.108;11.448;2022-10-19T14:51:07;8.37;;;3.77;;
19812;SDS011;10066;48.108;11.448;2022-10-19T14:53:43;5.30;;;3.63;;
19812;SDS011;10066;48.108;11.448;2022-10-19T14:56:16;5.40;;;3.60;;
19812;SDS011;10066;48.108;11.448;2022-10-19T14:58:47;5.00;;;3.80;;
19812;SDS011;10066;48.108;11.448;2022-10-19T15:01:19;5.80;;;3.90;;
19812;SDS011;10066;48.108;11.448;2022-10-19T15:03:46;4.60;;;3.80;;
19812;SDS011;10066;48.108;11.448;2022-10-19T15:06:16;7.60;;;3.83;;
19812;SDS011;10066;48.108;11.448;2022-10-19T15:08:48;8.17;;;3.70;;
19812;SDS011;10066;48.108;11.448;2022-10-19T15:11:21;4.23;;;3.50;;
19812;SDS011;10066;48.108;11.448;2022-10-19T15:13:54;8.63;;;5.77;;